sensor_id;sensor_type;location;lat;lon;timestamp;P1;durP1;ratioP1;P2;durP2;ratioP2
61017;SDS011;48171;51.550;5.434;2023-04-03T00:01:00;12.13;;;7.32;;
61017;SDS011;48171;51.550;5.434;2023-04-03T00:03:26;14.35;;;7.85;;
61017;SDS011;48171;51.550;5.434;2023-04-03T00:05:51;13.80;;;7.38;;
61017;SDS011;48171;51.550;5.434;2023-04-03T00:08:17;12.32;;;7.57;;
61017;SDS011;48171;51.550;5.434;2023-04-03T00:10:42;13.13;;;7.20;;
61017;SDS011;48171;51.550;5.434;2023-04-03T00:13:08;12.88;;;6.57;;
61017;SDS011;48171;51.550;5.434;2023-04-03T00:15:34;11.65;;;6.22;;
61017;SDS011;48171;51.550;5.434;2023-04-03T00:18:00;14.70;;;8.05;;
61017;SDS011;48171;51.550;5.434;2023-04-03T00:20:26;14.25;;;8.27;;
61017;SDS011;48171;51.550;5.434;2023-04-03T00:22:52;18.75;;;10.25;;
61017;SDS011;48171;51.550;5.434;2023-04-03T00:25:17;22.70;;;10.52;;
61017;SDS011;48171;51.550;5.434;2023-04-03T00:27:43;16.92;;;9.80;;
61017;SDS011;48171;51.550;5.434;2023-04-03T00:30:09;14.63;;;9.38;;
61017;SDS011;48171;51.550;5.434;2023-04-03T00:32:37;17.77;;;9.97;;
61017;SDS011;48171;51.550;5.434;2023-04-03T00:35:03;14.57;;;8.80;;
61017;SDS011;48171;51.550;5.434;2023-04-03T00:37:28;14.52;;;7.78;;
61017;SDS011;48171;51.550;5.434;2023-04-03T00:39:54;24.30;;;10.40;;
61017;SDS011;48171;51.550;5.434;2023-04-03T00:42:19;17.75;;;9.50;;
61017;SDS011;48171;51.550;5.434;2023-04-03T00:47:11;16.92;;;8.10;;
61017;SDS011;48171;51.550;5.434;2023-04-03T00:49:38;14.43;;;8.45;;
61017;SDS011;48171;51.550;5.434;2023-04-03T00:52:05;14.18;;;7.93;;
61017;SDS011;48171;51.550;5.434;2023-04-03T00:54:34;13.73;;;7.40;;
61017;SDS011;48171;51.550;5.434;2023-04-03T00:57:01;14.65;;;7.85;;
61017;SDS011;48171;51.550;5.434;2023-04-03T00:59:30;15.63;;;8.63;;
61017;SDS011;48171;51.550;5.434;2023-04-03T01:01:59;16.52;;;8.70;;
61017;SDS011;48171;51.550;5.434;2023-04-03T01:04:38;19.10;;;9.77;;
61017;SDS011;48171;51.550;5.434;2023-04-03T01:09:33;13.02;;;8.20;;
61017;SDS011;48171;51.550;5.434;2023-04-03T01:12:12;16.08;;;8.70;;
61017;SDS011;48171;51.550;5.434;2023-04-03T01:14:41;18.65;;;9.05;;
61017;SDS011;48171;51.550;5.434;2023-04-03T01:22:33;19.55;;;10.93;;
61017;SDS011;48171;51.550;5.434;2023-04-03T01:25:09;19.92;;;9.95;;
61017;SDS011;48171;51.550;5.434;2023-04-03T01:27:34;16.73;;;10.18;;
61017;SDS011;48171;51.550;5.434;2023-04-03T01:29:59;17.58;;;9.35;;
61017;SDS011;48171;51.550;5.434;2023-04-03T01:32:25;18.63;;;9.77;;
61017;SDS011;48171;51.550;5.434;2023-04-03T01:34:50;20.52;;;9.90;;
61017;SDS011;48171;51.550;5.434;2023-04-03T01:37:15;19.10;;;9.73;;
61017;SDS011;48171;51.550;5.434;2023-04-03T01:39:40;20.60;;;9.55;;
61017;SDS011;48171;51.550;5.434;2023-04-03T01:42:06;18.80;;;10.80;;
61017;SDS011;48171;51.550;5.434;2023-04-03T01:44:31;21.05;;;10.02;;
61017;SDS011;48171;51.550;5.434;2023-04-03T01:46:56;15.70;;;9.63;;
61017;SDS011;48171;51.550;5.434;2023-04-03T01:49:22;15.48;;;9.48;;
61017;SDS011;48171;51.550;5.434;2023-04-03T01:51:47;18.92;;;9.85;;
61017;SDS011;48171;51.550;5.434;2023-04-03T01:54:12;15.80;;;9.50;;
61017;SDS011;48171;51.550;5.434;2023-04-03T01:56:37;23.92;;;9.52;;
61017;SDS011;48171;51.550;5.434;2023-04-03T01:59:03;17.48;;;9.38;;
61017;SDS011;48171;51.550;5.434;2023-04-03T02:01:29;16.60;;;8.82;;
61017;SDS011;48171;51.550;5.434;2023-04-03T02:03:54;13.93;;;8.15;;
61017;SDS011;48171;51.550;5.434;2023-04-03T02:06:19;16.55;;;9.68;;
61017;SDS011;48171;51.550;5.434;2023-04-03T02:08:45;17.33;;;9.77;;
61017;SDS011;48171;51.550;5.434;2023-04-03T02:11:10;18.75;;;8.77;;
61017;SDS011;48171;51.550;5.434;2023-04-03T02:13:36;17.98;;;9.88;;
61017;SDS011;48171;51.550;5.434;2023-04-03T02:16:06;16.33;;;9.02;;
61017;SDS011;48171;51.550;5.434;2023-04-03T02:18:32;15.65;;;8.57;;
61017;SDS011;48171;51.550;5.434;2023-04-03T02:20:57;16.77;;;9.18;;
61017;SDS011;48171;51.550;5.434;2023-04-03T02:23:23;15.07;;;9.13;;
61017;SDS011;48171;51.550;5.434;2023-04-03T02:25:48;16.77;;;9.18;;
61017;SDS011;48171;51.550;5.434;2023-04-03T02:28:14;21.42;;;8.95;;
61017;SDS011;48171;51.550;5.434;2023-04-03T02:30:39;16.60;;;8.57;;
61017;SDS011;48171;51.550;5.434;2023-04-03T02:33:04;18.42;;;8.93;;
61017;SDS011;48171;51.550;5.434;2023-04-03T02:35:30;13.02;;;7.95;;
61017;SDS011;48171;51.550;5.434;2023-04-03T02:37:55;13.40;;;8.13;;
61017;SDS011;48171;51.550;5.434;2023-04-03T02:40:20;17.60;;;8.35;;
61017;SDS011;48171;51.550;5.434;2023-04-03T02:42:45;13.20;;;7.70;;
61017;SDS011;48171;51.550;5.434;2023-04-03T02:45:11;13.38;;;7.38;;
61017;SDS011;48171;51.550;5.434;2023-04-03T02:47:36;17.58;;;8.30;;
61017;SDS011;48171;51.550;5.434;2023-04-03T02:50:01;19.65;;;8.05;;
61017;SDS011;48171;51.550;5.434;2023-04-03T02:52:27;14.18;;;7.80;;
61017;SDS011;48171;51.550;5.434;2023-04-03T02:54:52;15.02;;;7.70;;
61017;SDS011;48171;51.550;5.434;2023-04-03T02:57:17;15.63;;;7.05;;
61017;SDS011;48171;51.550;5.434;2023-04-03T02:59:44;15.07;;;7.15;;
61017;SDS011;48171;51.550;5.434;2023-04-03T03:02:10;12.40;;;7.03;;
61017;SDS011;48171;51.550;5.434;2023-04-03T03:04:35;13.35;;;7.05;;
61017;SDS011;48171;51.550;5.434;2023-04-03T03:07:01;14.80;;;7.47;;
61017;SDS011;48171;51.550;5.434;2023-04-03T03:09:27;18.15;;;6.82;;
61017;SDS011;48171;51.550;5.434;2023-04-03T03:11:54;10.60;;;6.10;;
61017;SDS011;48171;51.550;5.434;2023-04-03T03:14:20;11.20;;;6.20;;
61017;SDS011;48171;51.550;5.434;2023-04-03T03:16:45;11.70;;;5.93;;
61017;SDS011;48171;51.550;5.434;2023-04-03T03:19:10;12.82;;;6.22;;
61017;SDS011;48171;51.550;5.434;2023-04-03T03:21:36;12.95;;;5.57;;
61017;SDS011;48171;51.550;5.434;2023-04-03T03:24:01;13.73;;;6.22;;
61017;SDS011;48171;51.550;5.434;2023-04-03T03:26:27;14.23;;;6.50;;
61017;SDS011;48171;51.550;5.434;2023-04-03T03:28:52;11.50;;;5.60;;
61017;SDS011;48171;51.550;5.434;2023-04-03T03:31:17;13.98;;;6.43;;
61017;SDS011;48171;51.550;5.434;2023-04-03T03:33:42;11.88;;;5.45;;
61017;SDS011;48171;51.550;5.434;2023-04-03T03:36:08;11.73;;;5.90;;
61017;SDS011;48171;51.550;5.434;2023-04-03T03:38:33;10.00;;;5.07;;
61017;SDS011;48171;51.550;5.434;2023-04-03T03:40:59;11.13;;;5.65;;
61017;SDS011;48171;51.550;5.434;2023-04-03T03:43:24;10.38;;;5.13;;
61017;SDS011;48171;51.550;5.434;2023-04-03T03:45:50;10.73;;;5.10;;
61017;SDS011;48171;51.550;5.434;2023-04-03T03:48:17;11.07;;;5.47;;
61017;SDS011;48171;51.550;5.434;2023-04-03T03:50:42;14.15;;;5.35;;
61017;SDS011;48171;51.550;5.434;2023-04-03T03:53:08;8.85;;;5.13;;
61017;SDS011;48171;51.550;5.434;2023-04-03T03:55:33;9.93;;;4.90;;
61017;SDS011;48171;51.550;5.434;2023-04-03T03:57:58;11.15;;;4.88;;
61017;SDS011;48171;51.550;5.434;2023-04-03T04:00:24;13.57;;;4.82;;
61017;SDS011;48171;51.550;5.434;2023-04-03T04:02:50;12.57;;;5.35;;
61017;SDS011;48171;51.550;5.434;2023-04-03T04:05:15;9.10;;;5.03;;
61017;SDS011;48171;51.550;5.434;2023-04-03T04:07:40;10.15;;;5.40;;
61017;SDS011;48171;51.550;5.434;2023-04-03T04:10:06;8.10;;;4.65;;
61017;SDS011;48171;51.550;5.434;2023-04-03T04:12:31;9.85;;;5.00;;
61017;SDS011;48171;51.550;5.434;2023-04-03T04:14:57;10.13;;;4.90;;
61017;SDS011;48171;51.550;5.434;2023-04-03T04:17:22;8.82;;;4.43;;
61017;SDS011;48171;51.550;5.434;2023-04-03T04:19:47;9.00;;;4.88;;
61017;SDS011;48171;51.550;5.434;2023-04-03T04:22:12;8.23;;;4.88;;
61017;SDS011;48171;51.550;5.434;2023-04-03T04:24:38;11.98;;;5.18;;
61017;SDS011;48171;51.550;5.434;2023-04-03T04:27:03;10.43;;;5.15;;
61017;SDS011;48171;51.550;5.434;2023-04-03T04:29:28;7.95;;;4.35;;
61017;SDS011;48171;51.550;5.434;2023-04-03T04:31:54;9.15;;;4.70;;
61017;SDS011;48171;51.550;5.434;2023-04-03T04:34:19;9.60;;;4.53;;
61017;SDS011;48171;51.550;5.434;2023-04-03T04:36:45;12.57;;;4.78;;
61017;SDS011;48171;51.550;5.434;2023-04-03T04:39:10;10.95;;;4.72;;
61017;SDS011;48171;51.550;5.434;2023-04-03T04:41:35;9.98;;;4.43;;
61017;SDS011;48171;51.550;5.434;2023-04-03T04:44:00;10.25;;;4.38;;
61017;SDS011;48171;51.550;5.434;2023-04-03T04:46:26;11.20;;;4.45;;
61017;SDS011;48171;51.550;5.434;2023-04-03T04:48:51;10.57;;;4.28;;
61017;SDS011;48171;51.550;5.434;2023-04-03T04:51:16;11.80;;;4.60;;
61017;SDS011;48171;51.550;5.434;2023-04-03T04:53:42;9.35;;;4.45;;
61017;SDS011;48171;51.550;5.434;2023-04-03T04:56:07;9.05;;;3.83;;
61017;SDS011;48171;51.550;5.434;2023-04-03T04:58:33;7.97;;;3.97;;
61017;SDS011;48171;51.550;5.434;2023-04-03T05:00:59;9.38;;;4.03;;
61017;SDS011;48171;51.550;5.434;2023-04-03T05:03:26;9.82;;;4.07;;
61017;SDS011;48171;51.550;5.434;2023-04-03T05:05:51;10.57;;;4.00;;
61017;SDS011;48171;51.550;5.434;2023-04-03T05:08:16;8.70;;;4.40;;
61017;SDS011;48171;51.550;5.434;2023-04-03T05:10:41;13.10;;;4.07;;
61017;SDS011;48171;51.550;5.434;2023-04-03T05:13:07;7.25;;;3.70;;
61017;SDS011;48171;51.550;5.434;2023-04-03T05:15:32;8.98;;;3.97;;
61017;SDS011;48171;51.550;5.434;2023-04-03T05:17:58;6.90;;;3.50;;
61017;SDS011;48171;51.550;5.434;2023-04-03T05:20:23;9.18;;;4.13;;
61017;SDS011;48171;51.550;5.434;2023-04-03T05:22:48;8.60;;;4.00;;
61017;SDS011;48171;51.550;5.434;2023-04-03T05:25:14;7.72;;;4.07;;
61017;SDS011;48171;51.550;5.434;2023-04-03T05:27:39;9.30;;;3.90;;
61017;SDS011;48171;51.550;5.434;2023-04-03T05:30:05;8.52;;;3.33;;
61017;SDS011;48171;51.550;5.434;2023-04-03T05:32:30;8.68;;;3.95;;
61017;SDS011;48171;51.550;5.434;2023-04-03T05:34:56;9.52;;;3.97;;
61017;SDS011;48171;51.550;5.434;2023-04-03T05:37:21;8.55;;;3.58;;
61017;SDS011;48171;51.550;5.434;2023-04-03T05:39:46;8.02;;;3.92;;
61017;SDS011;48171;51.550;5.434;2023-04-03T05:42:12;6.45;;;3.83;;
61017;SDS011;48171;51.550;5.434;2023-04-03T05:44:38;9.88;;;3.65;;
61017;SDS011;48171;51.550;5.434;2023-04-03T05:47:03;7.40;;;4.18;;
61017;SDS011;48171;51.550;5.434;2023-04-03T05:49:29;10.13;;;3.97;;
61017;SDS011;48171;51.550;5.434;2023-04-03T05:51:54;9.85;;;3.95;;
61017;SDS011;48171;51.550;5.434;2023-04-03T05:54:22;9.02;;;4.07;;
61017;SDS011;48171;51.550;5.434;2023-04-03T05:56:50;8.43;;;3.75;;
61017;SDS011;48171;51.550;5.434;2023-04-03T05:59:17;9.30;;;3.85;;
61017;SDS011;48171;51.550;5.434;2023-04-03T06:01:43;8.85;;;3.67;;
61017;SDS011;48171;51.550;5.434;2023-04-03T06:04:08;8.07;;;3.78;;
61017;SDS011;48171;51.550;5.434;2023-04-03T06:06:53;10.75;;;4.30;;
61017;SDS011;48171;51.550;5.434;2023-04-03T06:09:21;9.10;;;3.60;;
61017;SDS011;48171;51.550;5.434;2023-04-03T06:11:48;8.82;;;4.35;;
61017;SDS011;48171;51.550;5.434;2023-04-03T06:14:14;9.00;;;4.15;;
61017;SDS011;48171;51.550;5.434;2023-04-03T06:16:39;9.50;;;4.10;;
61017;SDS011;48171;51.550;5.434;2023-04-03T06:19:05;15.35;;;4.35;;
61017;SDS011;48171;51.550;5.434;2023-04-03T06:21:31;8.25;;;3.55;;
61017;SDS011;48171;51.550;5.434;2023-04-03T06:23:57;6.45;;;3.65;;
61017;SDS011;48171;51.550;5.434;2023-04-03T06:26:23;8.35;;;3.67;;
61017;SDS011;48171;51.550;5.434;2023-04-03T06:28:48;7.82;;;3.90;;
61017;SDS011;48171;51.550;5.434;2023-04-03T06:31:13;9.43;;;3.75;;
61017;SDS011;48171;51.550;5.434;2023-04-03T06:33:38;7.10;;;3.42;;
61017;SDS011;48171;51.550;5.434;2023-04-03T06:36:04;8.52;;;3.50;;
61017;SDS011;48171;51.550;5.434;2023-04-03T06:38:31;7.85;;;3.55;;
61017;SDS011;48171;51.550;5.434;2023-04-03T06:40:57;8.88;;;3.65;;
61017;SDS011;48171;51.550;5.434;2023-04-03T06:43:23;9.90;;;4.55;;
61017;SDS011;48171;51.550;5.434;2023-04-03T06:45:49;9.68;;;4.07;;
61017;SDS011;48171;51.550;5.434;2023-04-03T06:48:14;11.35;;;3.88;;
61017;SDS011;48171;51.550;5.434;2023-04-03T06:50:40;8.35;;;3.70;;
61017;SDS011;48171;51.550;5.434;2023-04-03T06:53:05;11.45;;;3.88;;
61017;SDS011;48171;51.550;5.434;2023-04-03T06:55:31;10.75;;;3.95;;
61017;SDS011;48171;51.550;5.434;2023-04-03T06:57:57;9.10;;;4.05;;
61017;SDS011;48171;51.550;5.434;2023-04-03T07:00:22;10.73;;;3.80;;
61017;SDS011;48171;51.550;5.434;2023-04-03T07:02:47;7.60;;;3.72;;
61017;SDS011;48171;51.550;5.434;2023-04-03T07:05:13;6.28;;;3.42;;
61017;SDS011;48171;51.550;5.434;2023-04-03T07:07:38;9.95;;;3.90;;
61017;SDS011;48171;51.550;5.434;2023-04-03T07:10:04;9.07;;;3.97;;
61017;SDS011;48171;51.550;5.434;2023-04-03T07:12:31;6.85;;;3.38;;
61017;SDS011;48171;51.550;5.434;2023-04-03T07:14:56;11.38;;;4.20;;
61017;SDS011;48171;51.550;5.434;2023-04-03T07:17:21;12.38;;;3.70;;
61017;SDS011;48171;51.550;5.434;2023-04-03T07:19:47;10.65;;;3.83;;
61017;SDS011;48171;51.550;5.434;2023-04-03T07:22:12;10.90;;;4.10;;
61017;SDS011;48171;51.550;5.434;2023-04-03T07:24:37;9.70;;;3.65;;
61017;SDS011;48171;51.550;5.434;2023-04-03T07:27:03;8.15;;;3.42;;
61017;SDS011;48171;51.550;5.434;2023-04-03T07:29:28;7.25;;;3.70;;
61017;SDS011;48171;51.550;5.434;2023-04-03T07:31:54;11.43;;;3.67;;
61017;SDS011;48171;51.550;5.434;2023-04-03T07:34:20;7.15;;;3.90;;
61017;SDS011;48171;51.550;5.434;2023-04-03T07:36:45;8.02;;;3.60;;
61017;SDS011;48171;51.550;5.434;2023-04-03T07:39:11;10.10;;;3.60;;
61017;SDS011;48171;51.550;5.434;2023-04-03T07:41:36;9.48;;;3.63;;
61017;SDS011;48171;51.550;5.434;2023-04-03T07:44:01;9.88;;;3.53;;
61017;SDS011;48171;51.550;5.434;2023-04-03T07:46:27;9.52;;;3.35;;
61017;SDS011;48171;51.550;5.434;2023-04-03T07:48:53;8.48;;;3.35;;
61017;SDS011;48171;51.550;5.434;2023-04-03T07:51:18;8.63;;;3.85;;
61017;SDS011;48171;51.550;5.434;2023-04-03T07:53:44;8.02;;;3.38;;
61017;SDS011;48171;51.550;5.434;2023-04-03T07:56:10;7.97;;;3.58;;
61017;SDS011;48171;51.550;5.434;2023-04-03T07:58:35;9.45;;;3.70;;
61017;SDS011;48171;51.550;5.434;2023-04-03T08:01:01;9.25;;;4.10;;
61017;SDS011;48171;51.550;5.434;2023-04-03T08:03:27;10.45;;;3.85;;
61017;SDS011;48171;51.550;5.434;2023-04-03T08:05:52;9.40;;;4.05;;
61017;SDS011;48171;51.550;5.434;2023-04-03T08:08:19;6.57;;;3.35;;
61017;SDS011;48171;51.550;5.434;2023-04-03T08:10:52;7.47;;;3.53;;
61017;SDS011;48171;51.550;5.434;2023-04-03T08:13:19;6.88;;;2.78;;
61017;SDS011;48171;51.550;5.434;2023-04-03T08:15:45;5.95;;;3.30;;
61017;SDS011;48171;51.550;5.434;2023-04-03T08:18:11;11.02;;;3.80;;
61017;SDS011;48171;51.550;5.434;2023-04-03T08:20:37;9.18;;;3.47;;
61017;SDS011;48171;51.550;5.434;2023-04-03T08:23:03;10.32;;;3.95;;
61017;SDS011;48171;51.550;5.434;2023-04-03T08:25:28;10.20;;;3.92;;
61017;SDS011;48171;51.550;5.434;2023-04-03T08:27:54;6.05;;;2.92;;
61017;SDS011;48171;51.550;5.434;2023-04-03T08:30:20;8.90;;;3.55;;
61017;SDS011;48171;51.550;5.434;2023-04-03T08:32:45;10.88;;;3.38;;
61017;SDS011;48171;51.550;5.434;2023-04-03T08:35:10;7.45;;;3.00;;
61017;SDS011;48171;51.550;5.434;2023-04-03T08:37:36;7.68;;;3.55;;
61017;SDS011;48171;51.550;5.434;2023-04-03T08:40:03;7.88;;;2.92;;
61017;SDS011;48171;51.550;5.434;2023-04-03T08:48:34;6.90;;;2.67;;
61017;SDS011;48171;51.550;5.434;2023-04-03T08:51:17;6.57;;;2.63;;
61017;SDS011;48171;51.550;5.434;2023-04-03T08:54:04;5.85;;;2.75;;
61017;SDS011;48171;51.550;5.434;2023-04-03T08:56:39;6.53;;;2.65;;
61017;SDS011;48171;51.550;5.434;2023-04-03T08:59:09;6.60;;;2.67;;
61017;SDS011;48171;51.550;5.434;2023-04-03T09:01:39;4.43;;;2.25;;
61017;SDS011;48171;51.550;5.434;2023-04-03T09:04:12;7.75;;;2.60;;
61017;SDS011;48171;51.550;5.434;2023-04-03T09:06:39;8.50;;;2.28;;
61017;SDS011;48171;51.550;5.434;2023-04-03T09:14:57;6.38;;;2.45;;
61017;SDS011;48171;51.550;5.434;2023-04-03T09:20:21;6.95;;;2.20;;
61017;SDS011;48171;51.550;5.434;2023-04-03T09:22:50;4.40;;;1.85;;
61017;SDS011;48171;51.550;5.434;2023-04-03T09:27:51;4.55;;;1.75;;
61017;SDS011;48171;51.550;5.434;2023-04-03T09:30:21;3.75;;;1.65;;
61017;SDS011;48171;51.550;5.434;2023-04-03T09:32:49;4.03;;;1.42;;
61017;SDS011;48171;51.550;5.434;2023-04-03T09:38:13;5.57;;;1.80;;
61017;SDS011;48171;51.550;5.434;2023-04-03T09:40:42;5.20;;;1.60;;
61017;SDS011;48171;51.550;5.434;2023-04-03T09:43:19;3.42;;;1.50;;
61017;SDS011;48171;51.550;5.434;2023-04-03T09:45:50;3.15;;;1.45;;
61017;SDS011;48171;51.550;5.434;2023-04-03T09:48:17;5.22;;;1.38;;
61017;SDS011;48171;51.550;5.434;2023-04-03T09:54:03;4.88;;;1.08;;
61017;SDS011;48171;51.550;5.434;2023-04-03T09:58:38;1.60;;;1.10;;
61017;SDS011;48171;51.550;5.434;2023-04-03T10:01:20;2.95;;;1.00;;
61017;SDS011;48171;51.550;5.434;2023-04-03T10:06:33;1.88;;;0.88;;
61017;SDS011;48171;51.550;5.434;2023-04-03T10:09:06;4.70;;;1.38;;
61017;SDS011;48171;51.550;5.434;2023-04-03T10:11:56;2.90;;;1.10;;
61017;SDS011;48171;51.550;5.434;2023-04-03T10:14:22;4.55;;;1.40;;
61017;SDS011;48171;51.550;5.434;2023-04-03T10:17:34;4.68;;;1.13;;
61017;SDS011;48171;51.550;5.434;2023-04-03T10:19:55;1.48;;;1.00;;
61017;SDS011;48171;51.550;5.434;2023-04-03T10:22:31;3.78;;;1.13;;
61017;SDS011;48171;51.550;5.434;2023-04-03T10:25:21;4.90;;;1.30;;
61017;SDS011;48171;51.550;5.434;2023-04-03T10:39:11;4.10;;;1.17;;
61017;SDS011;48171;51.550;5.434;2023-04-03T10:41:34;2.03;;;0.98;;
61017;SDS011;48171;51.550;5.434;2023-04-03T10:52:22;3.95;;;1.08;;
61017;SDS011;48171;51.550;5.434;2023-04-03T10:54:55;2.45;;;1.00;;
61017;SDS011;48171;51.550;5.434;2023-04-03T10:57:29;2.78;;;0.95;;
61017;SDS011;48171;51.550;5.434;2023-04-03T10:59:56;1.38;;;0.75;;
61017;SDS011;48171;51.550;5.434;2023-04-03T11:02:30;2.58;;;0.90;;
61017;SDS011;48171;51.550;5.434;2023-04-03T11:05:15;2.28;;;0.90;;
61017;SDS011;48171;51.550;5.434;2023-04-03T11:07:47;1.98;;;0.95;;
61017;SDS011;48171;51.550;5.434;2023-04-03T11:10:19;3.42;;;1.15;;
61017;SDS011;48171;51.550;5.434;2023-04-03T11:12:51;1.98;;;0.98;;
61017;SDS011;48171;51.550;5.434;2023-04-03T11:15:27;2.40;;;1.10;;
61017;SDS011;48171;51.550;5.434;2023-04-03T11:18:13;3.08;;;1.10;;
61017;SDS011;48171;51.550;5.434;2023-04-03T11:20:53;3.88;;;1.45;;
61017;SDS011;48171;51.550;5.434;2023-04-03T11:23:26;2.30;;;1.20;;
61017;SDS011;48171;51.550;5.434;2023-04-03T11:25:54;4.45;;;1.00;;
61017;SDS011;48171;51.550;5.434;2023-04-03T11:28:26;2.22;;;1.20;;
61017;SDS011;48171;51.550;5.434;2023-04-03T11:36:59;1.92;;;0.98;;
61017;SDS011;48171;51.550;5.434;2023-04-03T11:39:33;4.90;;;1.30;;
61017;SDS011;48171;51.550;5.434;2023-04-03T11:42:13;4.70;;;1.17;;
61017;SDS011;48171;51.550;5.434;2023-04-03T11:44:41;2.45;;;1.02;;
61017;SDS011;48171;51.550;5.434;2023-04-03T11:47:07;1.27;;;0.80;;
61017;SDS011;48171;51.550;5.434;2023-04-03T12:26:46;2.72;;;1.10;;
61017;SDS011;48171;51.550;5.434;2023-04-03T12:40:44;4.88;;;1.60;;
61017;SDS011;48171;51.550;5.434;2023-04-03T12:43:20;6.28;;;1.80;;
61017;SDS011;48171;51.550;5.434;2023-04-03T12:46:19;4.50;;;1.70;;
61017;SDS011;48171;51.550;5.434;2023-04-03T12:48:52;3.78;;;1.60;;
61017;SDS011;48171;51.550;5.434;2023-04-03T12:53:57;5.43;;;1.92;;
61017;SDS011;48171;51.550;5.434;2023-04-03T12:56:27;9.45;;;2.40;;
61017;SDS011;48171;51.550;5.434;2023-04-03T12:58:55;7.40;;;1.77;;
61017;SDS011;48171;51.550;5.434;2023-04-03T13:01:37;5.72;;;2.08;;
61017;SDS011;48171;51.550;5.434;2023-04-03T13:04:03;4.43;;;1.63;;
61017;SDS011;48171;51.550;5.434;2023-04-03T13:06:35;5.57;;;1.65;;
61017;SDS011;48171;51.550;5.434;2023-04-03T13:09:03;3.55;;;1.65;;
61017;SDS011;48171;51.550;5.434;2023-04-03T13:11:33;4.68;;;1.80;;
61017;SDS011;48171;51.550;5.434;2023-04-03T13:14:04;5.63;;;1.52;;
61017;SDS011;48171;51.550;5.434;2023-04-03T13:16:39;7.57;;;2.08;;
61017;SDS011;48171;51.550;5.434;2023-04-03T13:19:06;3.88;;;1.75;;
61017;SDS011;48171;51.550;5.434;2023-04-03T13:21:32;5.63;;;2.00;;
61017;SDS011;48171;51.550;5.434;2023-04-03T13:24:00;6.18;;;1.75;;
61017;SDS011;48171;51.550;5.434;2023-04-03T13:26:29;3.85;;;1.80;;
61017;SDS011;48171;51.550;5.434;2023-04-03T13:29:07;15.18;;;3.13;;
61017;SDS011;48171;51.550;5.434;2023-04-03T13:32:04;5.22;;;2.10;;
61017;SDS011;48171;51.550;5.434;2023-04-03T13:34:38;5.47;;;1.90;;
61017;SDS011;48171;51.550;5.434;2023-04-03T13:37:19;6.03;;;1.67;;
61017;SDS011;48171;51.550;5.434;2023-04-03T13:39:45;4.13;;;1.50;;
61017;SDS011;48171;51.550;5.434;2023-04-03T13:42:41;9.27;;;2.08;;
61017;SDS011;48171;51.550;5.434;2023-04-03T13:45:21;5.22;;;1.73;;
61017;SDS011;48171;51.550;5.434;2023-04-03T13:47:51;4.95;;;1.73;;
61017;SDS011;48171;51.550;5.434;2023-04-03T13:50:21;7.20;;;2.05;;
61017;SDS011;48171;51.550;5.434;2023-04-03T13:55:34;6.68;;;2.17;;
61017;SDS011;48171;51.550;5.434;2023-04-03T14:00:35;5.10;;;1.90;;
61017;SDS011;48171;51.550;5.434;2023-04-03T14:05:57;7.70;;;2.25;;
61017;SDS011;48171;51.550;5.434;2023-04-03T14:08:23;6.85;;;2.20;;
61017;SDS011;48171;51.550;5.434;2023-04-03T14:10:48;6.05;;;2.10;;
61017;SDS011;48171;51.550;5.434;2023-04-03T14:13:15;7.25;;;2.08;;
61017;SDS011;48171;51.550;5.434;2023-04-03T14:15:41;4.95;;;1.77;;
61017;SDS011;48171;51.550;5.434;2023-04-03T14:18:16;6.00;;;2.03;;
61017;SDS011;48171;51.550;5.434;2023-04-03T14:20:44;7.80;;;2.50;;
61017;SDS011;48171;51.550;5.434;2023-04-03T14:23:09;7.90;;;2.80;;
61017;SDS011;48171;51.550;5.434;2023-04-03T14:25:35;5.32;;;2.35;;
61017;SDS011;48171;51.550;5.434;2023-04-03T14:28:01;9.43;;;2.80;;
61017;SDS011;48171;51.550;5.434;2023-04-03T14:30:28;8.93;;;2.92;;
61017;SDS011;48171;51.550;5.434;2023-04-03T14:32:56;7.93;;;2.78;;
61017;SDS011;48171;51.550;5.434;2023-04-03T14:35:21;5.65;;;2.30;;
61017;SDS011;48171;51.550;5.434;2023-04-03T14:37:47;7.95;;;2.60;;
61017;SDS011;48171;51.550;5.434;2023-04-03T14:40:18;7.57;;;2.40;;
61017;SDS011;48171;51.550;5.434;2023-04-03T14:42:45;7.32;;;2.65;;
61017;SDS011;48171;51.550;5.434;2023-04-03T14:45:13;6.22;;;2.13;;
61017;SDS011;48171;51.550;5.434;2023-04-03T14:47:46;7.63;;;2.13;;
61017;SDS011;48171;51.550;5.434;2023-04-03T14:50:15;8.00;;;2.67;;
61017;SDS011;48171;51.550;5.434;2023-04-03T14:52:43;7.78;;;2.20;;
61017;SDS011;48171;51.550;5.434;2023-04-03T14:55:08;7.18;;;2.50;;
61017;SDS011;48171;51.550;5.434;2023-04-03T14:57:34;9.07;;;2.63;;
61017;SDS011;48171;51.550;5.434;2023-04-03T15:00:00;6.95;;;2.60;;
61017;SDS011;48171;51.550;5.434;2023-04-03T15:02:33;8.75;;;2.70;;
61017;SDS011;48171;51.550;5.434;2023-04-03T15:05:03;10.20;;;2.70;;
61017;SDS011;48171;51.550;5.434;2023-04-03T15:07:38;8.15;;;2.63;;
61017;SDS011;48171;51.550;5.434;2023-04-03T15:10:16;8.27;;;2.30;;
61017;SDS011;48171;51.550;5.434;2023-04-03T15:12:43;7.63;;;2.35;;
61017;SDS011;48171;51.550;5.434;2023-04-03T15:15:09;6.13;;;2.40;;
61017;SDS011;48171;51.550;5.434;2023-04-03T15:17:35;9.50;;;2.63;;
61017;SDS011;48171;51.550;5.434;2023-04-03T15:20:01;7.70;;;2.80;;
61017;SDS011;48171;51.550;5.434;2023-04-03T15:22:28;6.47;;;2.10;;
61017;SDS011;48171;51.550;5.434;2023-04-03T15:24:53;6.28;;;2.60;;
61017;SDS011;48171;51.550;5.434;2023-04-03T15:27:18;10.27;;;2.90;;
61017;SDS011;48171;51.550;5.434;2023-04-03T15:29:44;9.82;;;2.70;;
61017;SDS011;48171;51.550;5.434;2023-04-03T15:32:10;5.20;;;2.40;;
61017;SDS011;48171;51.550;5.434;2023-04-03T15:34:36;11.38;;;2.78;;
61017;SDS011;48171;51.550;5.434;2023-04-03T15:37:01;8.70;;;2.63;;
61017;SDS011;48171;51.550;5.434;2023-04-03T15:39:27;10.77;;;2.60;;
61017;SDS011;48171;51.550;5.434;2023-04-03T15:41:52;9.52;;;3.33;;
61017;SDS011;48171;51.550;5.434;2023-04-03T15:44:19;9.05;;;2.35;;
61017;SDS011;48171;51.550;5.434;2023-04-03T15:46:45;5.38;;;2.25;;
61017;SDS011;48171;51.550;5.434;2023-04-03T15:49:12;11.82;;;2.83;;
61017;SDS011;48171;51.550;5.434;2023-04-03T15:51:38;6.53;;;2.25;;
61017;SDS011;48171;51.550;5.434;2023-04-03T15:54:03;6.97;;;2.45;;
61017;SDS011;48171;51.550;5.434;2023-04-03T15:56:29;9.05;;;2.45;;
61017;SDS011;48171;51.550;5.434;2023-04-03T15:58:54;11.30;;;2.88;;
61017;SDS011;48171;51.550;5.434;2023-04-03T16:01:20;9.07;;;2.67;;
61017;SDS011;48171;51.550;5.434;2023-04-03T16:03:45;8.90;;;2.60;;
61017;SDS011;48171;51.550;5.434;2023-04-03T16:06:15;9.48;;;2.83;;
61017;SDS011;48171;51.550;5.434;2023-04-03T16:08:42;7.47;;;2.35;;
61017;SDS011;48171;51.550;5.434;2023-04-03T16:11:07;7.75;;;2.50;;
61017;SDS011;48171;51.550;5.434;2023-04-03T16:13:33;12.73;;;3.17;;
61017;SDS011;48171;51.550;5.434;2023-04-03T16:15:59;10.02;;;3.17;;
61017;SDS011;48171;51.550;5.434;2023-04-03T16:18:25;9.50;;;2.70;;
61017;SDS011;48171;51.550;5.434;2023-04-03T16:20:51;8.05;;;2.65;;
61017;SDS011;48171;51.550;5.434;2023-04-03T16:23:16;10.45;;;3.40;;
61017;SDS011;48171;51.550;5.434;2023-04-03T16:25:42;6.60;;;2.47;;
61017;SDS011;48171;51.550;5.434;2023-04-03T16:28:11;5.72;;;2.60;;
61017;SDS011;48171;51.550;5.434;2023-04-03T16:30:37;7.47;;;2.40;;
61017;SDS011;48171;51.550;5.434;2023-04-03T16:33:02;8.13;;;2.70;;
61017;SDS011;48171;51.550;5.434;2023-04-03T16:35:27;7.32;;;3.00;;
61017;SDS011;48171;51.550;5.434;2023-04-03T16:37:53;5.95;;;2.38;;
61017;SDS011;48171;51.550;5.434;2023-04-03T16:40:18;7.68;;;2.58;;
61017;SDS011;48171;51.550;5.434;2023-04-03T16:42:43;8.27;;;2.63;;
61017;SDS011;48171;51.550;5.434;2023-04-03T16:45:09;6.03;;;2.72;;
61017;SDS011;48171;51.550;5.434;2023-04-03T16:47:35;8.85;;;2.78;;
61017;SDS011;48171;51.550;5.434;2023-04-03T16:50:00;8.60;;;2.65;;